createdAt,value
2023-02-16T00:01:17.094Z,23.83
2023-02-16T00:03:46.667Z,21.87
2023-02-16T00:06:16.188Z,23.53
2023-02-16T00:08:46.720Z,21.37
2023-02-16T00:11:35.927Z,23.20
2023-02-16T00:14:05.119Z,21.70
2023-02-16T00:16:32.828Z,25.93
2023-02-16T00:19:02.063Z,22.60
2023-02-16T00:21:29.791Z,23.07
2023-02-16T00:23:57.499Z,24.90
2023-02-16T00:26:27.076Z,25.30
2023-02-16T00:28:58.452Z,24.73
2023-02-16T00:31:27.893Z,25.30
2023-02-16T00:33:56.033Z,23.57
2023-02-16T00:36:25.220Z,23.83
2023-02-16T00:38:53.206Z,21.87
2023-02-16T00:41:41.728Z,23.50
2023-02-16T00:44:15.986Z,21.97
2023-02-16T00:46:44.289Z,22.57
2023-02-16T00:49:15.511Z,23.43
2023-02-16T00:51:45.117Z,26.73
2023-02-16T00:54:13.272Z,25.30
2023-02-16T00:56:42.924Z,25.10
2023-02-16T00:59:16.917Z,23.43
2023-02-16T01:01:45.003Z,26.57
2023-02-16T01:04:20.360Z,23.00
2023-02-16T01:07:18.546Z,23.87
2023-02-16T01:10:03.804Z,25.60
2023-02-16T01:12:31.542Z,24.73
2023-02-16T01:14:59.243Z,23.73
2023-02-16T01:17:26.991Z,24.40
2023-02-16T01:19:55.204Z,24.90
2023-02-16T01:22:24.287Z,23.80
2023-02-16T01:24:52.016Z,23.93
2023-02-16T01:27:19.889Z,23.93
2023-02-16T01:29:47.616Z,24.10
2023-02-16T01:32:15.390Z,24.37
2023-02-16T01:34:43.158Z,24.63
2023-02-16T01:37:16.018Z,24.27
2023-02-16T01:39:45.569Z,26.27
2023-02-16T01:42:24.224Z,24.20
2023-02-16T01:44:53.871Z,23.73
2023-02-16T01:47:36.642Z,24.00
2023-02-16T01:50:17.213Z,21.97
2023-02-16T01:52:51.341Z,25.77
2023-02-16T01:55:25.116Z,23.17
2023-02-16T01:57:58.130Z,23.73
2023-02-16T02:00:31.129Z,24.43
2023-02-16T02:03:16.508Z,24.70
2023-02-16T02:05:44.548Z,24.53
2023-02-16T02:08:20.324Z,25.03
2023-02-16T02:11:00.707Z,23.37
2023-02-16T02:13:33.763Z,25.73
2023-02-16T02:16:02.627Z,24.87
2023-02-16T02:18:30.381Z,24.73
2023-02-16T02:21:34.771Z,23.67
2023-02-16T02:24:30.702Z,25.00
2023-02-16T02:27:15.336Z,23.20
2023-02-16T02:30:00.916Z,23.20
2023-02-16T02:32:39.904Z,24.03
2023-02-16T02:35:21.398Z,23.80
2023-02-16T02:37:54.506Z,24.27
2023-02-16T02:40:34.570Z,25.00
2023-02-16T02:43:09.338Z,24.20
2023-02-16T02:45:42.223Z,22.97
2023-02-16T02:48:09.938Z,23.57
2023-02-16T02:51:02.472Z,25.03
2023-02-16T02:53:30.968Z,23.10
2023-02-16T02:56:17.983Z,24.87
2023-02-16T02:59:07.754Z,22.33
2023-02-16T03:01:38.278Z,25.10
2023-02-16T03:04:09.501Z,25.90
2023-02-16T03:06:39.918Z,25.90
2023-02-16T03:09:12.109Z,26.40
2023-02-16T03:11:57.230Z,27.53
2023-02-16T03:14:31.819Z,26.13
2023-02-16T03:17:19.384Z,26.70
2023-02-16T03:20:08.006Z,28.17
2023-02-16T03:22:54.867Z,27.17
2023-02-16T03:25:41.222Z,27.00
2023-02-16T03:28:29.154Z,27.93
2023-02-16T03:31:01.602Z,28.27
2023-02-16T03:33:30.440Z,27.37
2023-02-16T03:35:59.241Z,27.40
2023-02-16T03:38:27.529Z,27.53
2023-02-16T03:40:55.650Z,27.57
2023-02-16T03:43:26.290Z,30.73
2023-02-16T03:45:54.056Z,25.60
2023-02-16T03:48:23.275Z,27.53
2023-02-16T03:50:50.997Z,29.33
2023-02-16T03:53:19.837Z,27.43
2023-02-16T03:55:49.207Z,27.23
2023-02-16T03:58:19.506Z,29.47
2023-02-16T04:00:47.313Z,28.13
2023-02-16T04:03:15.618Z,27.37
2023-02-16T04:05:45.605Z,28.00
2023-02-16T04:08:13.528Z,26.83
2023-02-16T04:10:41.493Z,29.87
2023-02-16T04:13:08.222Z,27.57
2023-02-16T04:15:36.359Z,28.50
2023-02-16T04:18:04.154Z,29.63
2023-02-16T04:20:34.071Z,27.00
2023-02-16T04:23:03.818Z,26.60
2023-02-16T04:25:31.727Z,26.13
2023-02-16T04:27:59.666Z,28.30
2023-02-16T04:30:30.086Z,26.50
2023-02-16T04:32:58.791Z,28.60
2023-02-16T04:35:26.564Z,25.10
2023-02-16T04:37:54.447Z,27.70
2023-02-16T04:40:23.902Z,29.00
2023-02-16T04:42:51.688Z,29.30
2023-02-16T04:45:19.507Z,27.17
2023-02-16T04:47:47.269Z,28.53
2023-02-16T04:50:15.019Z,27.23
2023-02-16T04:52:42.754Z,28.00
2023-02-16T04:55:10.828Z,29.97
2023-02-16T04:57:40.515Z,31.37
2023-02-16T05:00:11.659Z,29.90
2023-02-16T05:02:39.490Z,31.63
2023-02-16T05:05:08.026Z,31.60
2023-02-16T05:07:36.260Z,30.20
2023-02-16T05:10:04.078Z,28.93
2023-02-16T05:12:49.221Z,32.03
2023-02-16T05:15:18.465Z,32.37
2023-02-16T05:17:46.256Z,33.97
2023-02-16T05:20:14.599Z,33.10
2023-02-16T05:22:43.575Z,32.23
2023-02-16T05:25:11.331Z,30.73
2023-02-16T05:27:39.050Z,32.20
2023-02-16T05:30:08.747Z,33.73
2023-02-16T05:32:37.893Z,34.07
2023-02-16T05:35:06.610Z,35.70
2023-02-16T05:37:34.360Z,35.17
2023-02-16T05:40:02.376Z,34.67
2023-02-16T05:42:30.124Z,32.37
2023-02-16T05:44:57.861Z,36.07
2023-02-16T05:47:25.586Z,35.10
2023-02-16T05:49:54.659Z,34.93
2023-02-16T05:52:22.486Z,35.93
2023-02-16T05:54:50.234Z,35.03
2023-02-16T05:57:18.019Z,36.27
2023-02-16T05:59:45.748Z,37.10
2023-02-16T06:02:13.519Z,33.80
2023-02-16T06:04:41.279Z,36.23
2023-02-16T06:07:10.807Z,35.47
2023-02-16T06:09:39.366Z,34.60
2023-02-16T06:12:07.808Z,35.43
2023-02-16T06:14:35.521Z,35.13
2023-02-16T06:17:03.796Z,33.47
2023-02-16T06:19:32.432Z,36.87
2023-02-16T06:22:00.200Z,35.87
2023-02-16T06:24:29.753Z,35.37
2023-02-16T06:26:57.572Z,34.80
2023-02-16T06:29:25.520Z,30.47
2023-02-16T06:31:53.306Z,28.70
2023-02-16T06:34:21.132Z,31.83
2023-02-16T06:36:48.908Z,34.33
2023-02-16T06:39:16.670Z,34.77
2023-02-16T06:41:45.761Z,30.93
2023-02-16T06:44:15.305Z,32.30
2023-02-16T06:46:44.579Z,33.50
2023-02-16T06:49:14.063Z,33.67
2023-02-16T06:51:41.935Z,34.47
2023-02-16T06:54:09.799Z,32.13
2023-02-16T06:56:38.106Z,33.63
2023-02-16T06:59:07.719Z,32.97
2023-02-16T07:01:35.747Z,32.27
2023-02-16T07:04:03.615Z,27.77
2023-02-16T07:06:31.922Z,34.20
2023-02-16T07:09:00.710Z,32.00
2023-02-16T07:11:28.551Z,31.27
2023-02-16T07:13:56.462Z,29.43
2023-02-16T07:16:26.019Z,30.57
2023-02-16T07:18:53.803Z,34.93
2023-02-16T07:21:21.547Z,32.03
2023-02-16T07:23:49.308Z,32.77
2023-02-16T07:26:17.082Z,33.87
2023-02-16T07:28:44.817Z,34.13
2023-02-16T07:31:15.252Z,33.43
2023-02-16T07:33:45.167Z,34.93
2023-02-16T07:36:14.835Z,35.83
2023-02-16T07:38:42.934Z,33.53
2023-02-16T07:41:11.614Z,34.57
2023-02-16T07:43:42.706Z,34.60
2023-02-16T07:46:10.800Z,36.77
2023-02-16T07:48:38.562Z,33.57
2023-02-16T07:51:08.070Z,33.63
2023-02-16T07:53:36.048Z,35.60
2023-02-16T07:56:04.107Z,35.67
2023-02-16T07:58:31.851Z,33.27
2023-02-16T08:01:09.014Z,33.83
2023-02-16T08:03:36.797Z,35.73
2023-02-16T08:06:05.079Z,37.53
2023-02-16T08:08:34.572Z,35.00
2023-02-16T08:11:09.773Z,37.27
2023-02-16T08:13:37.514Z,34.07
2023-02-16T08:16:09.205Z,31.73
2023-02-16T08:18:37.030Z,33.30
2023-02-16T08:21:13.884Z,31.07
2023-02-16T08:23:47.661Z,33.23
2023-02-16T08:26:18.205Z,31.30
2023-02-16T08:28:47.092Z,31.73
2023-02-16T08:31:15.511Z,31.53
2023-02-16T08:33:43.969Z,31.03
2023-02-16T08:36:18.921Z,30.80
2023-02-16T08:38:50.154Z,28.47
2023-02-16T08:41:18.314Z,26.57
2023-02-16T08:43:46.237Z,24.83
2023-02-16T08:46:14.497Z,23.10
2023-02-16T08:48:45.187Z,20.33
2023-02-16T08:51:15.414Z,21.07
2023-02-16T08:53:43.151Z,21.53
2023-02-16T08:56:12.277Z,21.77
2023-02-16T08:58:40.214Z,19.80
2023-02-16T09:01:09.020Z,19.43
2023-02-16T09:03:38.449Z,20.57
2023-02-16T09:06:07.325Z,20.63
2023-02-16T09:08:37.535Z,18.13
2023-02-16T09:11:06.784Z,19.67
2023-02-16T09:13:37.885Z,19.67
2023-02-16T09:16:06.994Z,17.77
2023-02-16T09:18:36.837Z,18.57
2023-02-16T09:21:06.807Z,18.70
2023-02-16T09:23:35.726Z,18.07
2023-02-16T09:26:06.970Z,18.20
2023-02-16T09:28:36.590Z,18.73
2023-02-16T09:31:10.495Z,19.97
2023-02-16T09:33:38.588Z,20.30
2023-02-16T09:36:07.709Z,19.13
2023-02-16T09:38:35.829Z,19.13
2023-02-16T09:41:08.326Z,20.47
2023-02-16T09:43:46.684Z,21.13
2023-02-16T09:46:22.151Z,20.67
2023-02-16T09:48:51.303Z,20.00
2023-02-16T09:51:29.427Z,20.60
2023-02-16T09:54:12.200Z,21.97
2023-02-16T09:56:47.341Z,23.13
2023-02-16T09:59:30.156Z,22.60
2023-02-16T10:02:05.669Z,21.83
2023-02-16T10:04:44.215Z,22.90
2023-02-16T10:07:24.247Z,22.53
2023-02-16T10:09:55.769Z,23.17
2023-02-16T10:12:27.413Z,22.80
2023-02-16T10:15:00.490Z,20.73
2023-02-16T10:17:34.742Z,24.17
2023-02-16T10:20:09.263Z,23.20
2023-02-16T10:22:42.807Z,23.03
2023-02-16T10:25:14.864Z,23.83
2023-02-16T10:27:45.592Z,22.30
2023-02-16T10:30:18.782Z,23.37
2023-02-16T10:32:56.526Z,23.97
2023-02-16T10:35:31.473Z,23.07
2023-02-16T10:38:06.003Z,24.63
2023-02-16T10:40:48.343Z,23.50
2023-02-16T10:43:21.474Z,24.97
2023-02-16T10:45:54.141Z,26.43
2023-02-16T10:48:23.354Z,25.17
2023-02-16T10:50:58.982Z,25.10
2023-02-16T10:53:37.717Z,24.97
2023-02-16T10:56:28.299Z,25.17
2023-02-16T10:58:58.449Z,24.50
2023-02-16T11:01:37.115Z,27.00
2023-02-16T11:04:05.438Z,26.23
2023-02-16T11:06:36.393Z,26.27
2023-02-16T11:09:06.698Z,26.10
2023-02-16T11:11:38.256Z,25.50
2023-02-16T11:14:09.415Z,25.17
2023-02-16T11:16:38.737Z,24.93
2023-02-16T11:19:09.957Z,25.63
2023-02-16T11:21:47.363Z,25.77
2023-02-16T11:24:26.390Z,26.23
2023-02-16T11:27:03.218Z,26.67
2023-02-16T11:29:31.472Z,26.63
2023-02-16T11:32:06.299Z,27.53
2023-02-16T11:34:36.781Z,29.27
2023-02-16T11:37:09.145Z,25.83
2023-02-16T11:39:39.986Z,26.27
2023-02-16T11:42:10.490Z,25.63
2023-02-16T11:44:41.310Z,26.80
2023-02-16T11:47:24.391Z,26.03
2023-02-16T11:50:10.002Z,26.67
2023-02-16T11:52:37.999Z,26.63
2023-02-16T11:55:19.454Z,25.93
2023-02-16T11:57:47.216Z,25.23
2023-02-16T12:00:17.424Z,25.37
2023-02-16T12:03:07.981Z,25.47
2023-02-16T12:05:43.662Z,25.23
2023-02-16T12:08:38.391Z,24.67
2023-02-16T12:11:19.425Z,25.33
2023-02-16T12:13:55.557Z,23.57
2023-02-16T12:16:33.045Z,26.43
2023-02-16T12:19:14.485Z,26.67
2023-02-16T12:21:47.904Z,24.27
2023-02-16T12:24:28.652Z,23.57
2023-02-16T12:26:59.294Z,25.67
2023-02-16T12:29:41.473Z,24.80
2023-02-16T12:32:31.556Z,25.63
2023-02-16T12:35:13.810Z,25.67
2023-02-16T12:37:47.829Z,26.37
2023-02-16T12:40:23.655Z,25.30
2023-02-16T12:43:04.027Z,25.47
2023-02-16T12:45:36.600Z,24.13
2023-02-16T12:48:17.558Z,25.07
2023-02-16T12:50:49.872Z,25.13
2023-02-16T12:53:26.928Z,25.70
2023-02-16T12:55:59.380Z,25.60
2023-02-16T12:58:31.626Z,25.53
2023-02-16T13:01:04.075Z,25.13
2023-02-16T13:03:39.310Z,25.13
2023-02-16T13:06:19.505Z,25.43
2023-02-16T13:08:52.823Z,23.70
2023-02-16T13:11:24.606Z,26.53
2023-02-16T13:13:54.639Z,24.87
2023-02-16T13:16:30.598Z,21.17
2023-02-16T13:18:59.150Z,23.70
2023-02-16T13:21:54.264Z,25.63
2023-02-16T13:24:34.425Z,25.00
2023-02-16T13:27:16.975Z,22.10
2023-02-16T13:30:00.298Z,23.70
2023-02-16T13:32:44.836Z,25.00
2023-02-16T13:35:37.907Z,25.70
2023-02-16T13:38:25.152Z,25.73
2023-02-16T13:41:12.682Z,23.40
2023-02-16T13:43:45.058Z,25.67
2023-02-16T13:46:20.047Z,23.50
2023-02-16T13:48:50.168Z,27.93
2023-02-16T13:51:21.939Z,26.97
2023-02-16T13:53:56.982Z,26.40
2023-02-16T13:56:36.102Z,26.23
2023-02-16T13:59:57.703Z,24.53
2023-02-16T14:02:55.603Z,27.17
2023-02-16T14:05:27.544Z,27.50
2023-02-16T14:08:16.003Z,28.27
2023-02-16T14:11:19.102Z,25.00
2023-02-16T14:13:49.410Z,25.77
2023-02-16T14:16:31.643Z,26.13
2023-02-16T14:19:03.588Z,28.30
2023-02-16T14:21:39.767Z,26.73
2023-02-16T14:24:12.828Z,26.03
2023-02-16T14:26:55.424Z,29.03
2023-02-16T14:29:28.145Z,29.30
2023-02-16T14:32:02.594Z,28.60
2023-02-16T14:34:37.537Z,28.10
2023-02-16T14:37:34.845Z,27.70
2023-02-16T14:40:13.891Z,29.23
2023-02-16T14:42:59.261Z,25.90
2023-02-16T14:46:11.630Z,28.27
2023-02-16T14:49:15.214Z,28.27
2023-02-16T14:51:58.777Z,30.17
2023-02-16T14:54:49.758Z,28.67
2023-02-16T14:57:22.838Z,25.97
2023-02-16T14:59:57.251Z,29.23
2023-02-16T15:02:30.570Z,28.30
2023-02-16T15:04:59.231Z,29.03
2023-02-16T15:07:29.217Z,28.07
2023-02-16T15:09:59.641Z,30.83
2023-02-16T15:12:32.793Z,31.10
2023-02-16T15:15:03.926Z,29.80
2023-02-16T15:17:35.627Z,29.00
2023-02-16T15:20:10.651Z,30.60
2023-02-16T15:22:44.284Z,29.30
2023-02-16T15:25:25.642Z,29.07
2023-02-16T15:27:54.964Z,27.23
2023-02-16T15:30:25.888Z,30.50
2023-02-16T15:32:56.073Z,31.57
2023-02-16T15:35:27.698Z,29.00
2023-02-16T15:38:08.242Z,29.20
2023-02-16T15:40:36.431Z,28.37
2023-02-16T15:43:19.951Z,30.73
2023-02-16T15:45:52.884Z,29.83
2023-02-16T15:48:27.820Z,31.47
2023-02-16T15:50:58.406Z,31.43
2023-02-16T15:53:37.253Z,29.80
2023-02-16T15:56:17.209Z,28.50
2023-02-16T15:58:45.339Z,28.43
2023-02-16T16:01:31.656Z,28.60
2023-02-16T16:04:02.375Z,29.30
2023-02-16T16:06:35.982Z,28.67
2023-02-16T16:09:06.136Z,29.90
2023-02-16T16:11:34.805Z,30.20
2023-02-16T16:14:04.587Z,30.47
2023-02-16T16:16:34.981Z,29.10
2023-02-16T16:19:09.210Z,27.40
2023-02-16T16:21:48.348Z,29.77
2023-02-16T16:24:32.621Z,29.80
2023-02-16T16:27:02.976Z,29.37
2023-02-16T16:29:34.006Z,29.10
2023-02-16T16:32:03.927Z,29.53
2023-02-16T16:34:41.917Z,28.77
2023-02-16T16:37:23.551Z,30.43
2023-02-16T16:40:03.879Z,29.43
2023-02-16T16:42:33.608Z,29.60
2023-02-16T16:45:06.993Z,29.33
2023-02-16T16:47:39.733Z,28.57
2023-02-16T16:50:24.177Z,31.03
2023-02-16T16:52:55.089Z,29.17
2023-02-16T16:55:33.092Z,30.17
2023-02-16T16:58:03.427Z,32.97
2023-02-16T17:00:34.937Z,32.57
2023-02-16T17:03:06.443Z,34.07
2023-02-16T17:05:34.391Z,32.17
2023-02-16T17:08:02.348Z,32.70
2023-02-16T17:10:32.923Z,34.57
2023-02-16T17:13:01.211Z,33.63
2023-02-16T17:15:44.871Z,33.80
2023-02-16T17:18:18.280Z,33.20
2023-02-16T17:20:46.515Z,33.17
2023-02-16T17:23:16.293Z,29.73
2023-02-16T17:25:44.719Z,30.73
2023-02-16T17:28:14.150Z,32.27
2023-02-16T17:30:42.280Z,33.13
2023-02-16T17:33:11.211Z,34.60
2023-02-16T17:35:42.664Z,36.37
2023-02-16T17:38:12.259Z,33.27
2023-02-16T17:40:41.337Z,36.67
2023-02-16T17:43:13.768Z,35.23
2023-02-16T17:45:42.033Z,33.80
2023-02-16T17:48:16.166Z,35.33
2023-02-16T17:50:45.569Z,32.23
2023-02-16T17:53:14.636Z,36.43
2023-02-16T17:55:42.659Z,36.93
2023-02-16T17:58:11.934Z,34.77
2023-02-16T18:00:40.710Z,32.50
2023-02-16T18:03:12.261Z,36.33
2023-02-16T18:05:40.205Z,34.80
2023-02-16T18:08:09.339Z,36.67
2023-02-16T18:10:46.365Z,37.83
2023-02-16T18:13:14.960Z,39.00
2023-02-16T18:15:47.601Z,39.23
2023-02-16T18:18:16.786Z,39.17
2023-02-16T18:20:47.826Z,40.33
2023-02-16T18:23:19.609Z,40.60
2023-02-16T18:25:48.659Z,38.87
2023-02-16T18:28:22.259Z,41.40
2023-02-16T18:30:50.817Z,43.43
2023-02-16T18:33:18.610Z,40.37
2023-02-16T18:35:47.520Z,37.70
2023-02-16T18:38:17.054Z,40.33
2023-02-16T18:40:48.095Z,39.20
2023-02-16T18:43:15.950Z,41.93
2023-02-16T18:45:44.960Z,42.83
2023-02-16T18:48:12.753Z,41.10
2023-02-16T18:50:40.691Z,40.97
2023-02-16T18:53:08.504Z,38.33
2023-02-16T18:55:37.603Z,38.23
2023-02-16T18:58:09.126Z,39.23
2023-02-16T19:00:37.093Z,37.77
2023-02-16T19:03:05.398Z,38.97
2023-02-16T19:05:33.614Z,37.80
2023-02-16T19:08:01.429Z,39.53
2023-02-16T19:10:29.997Z,38.73
2023-02-16T19:13:01.110Z,39.60
2023-02-16T19:15:29.023Z,37.67
2023-02-16T19:17:56.809Z,39.10
2023-02-16T19:20:25.531Z,39.27
2023-02-16T19:22:53.295Z,37.90
2023-02-16T19:25:21.264Z,36.47
2023-02-16T19:27:49.259Z,37.30
2023-02-16T19:30:21.607Z,35.27
2023-02-16T19:32:49.705Z,34.97
2023-02-16T19:35:17.838Z,34.13
2023-02-16T19:37:45.705Z,37.70
2023-02-16T19:40:14.223Z,38.00
2023-02-16T19:42:42.009Z,37.03
2023-02-16T19:45:10.353Z,38.43
2023-02-16T19:47:39.475Z,39.27
2023-02-16T19:50:08.344Z,38.30
2023-02-16T19:52:36.246Z,37.90
2023-02-16T19:55:03.981Z,36.20
2023-02-16T19:57:31.689Z,36.60
2023-02-16T19:59:59.452Z,39.23
2023-02-16T20:02:27.323Z,37.53
2023-02-16T20:04:56.474Z,38.57
2023-02-16T20:07:24.213Z,37.10
2023-02-16T20:09:51.902Z,37.77
2023-02-16T20:12:19.662Z,37.33
2023-02-16T20:14:47.396Z,39.43
2023-02-16T20:17:15.130Z,37.53
2023-02-16T20:19:42.898Z,37.30
2023-02-16T20:22:12.178Z,35.27
2023-02-16T20:24:39.900Z,36.53
2023-02-16T20:27:07.629Z,37.47
2023-02-16T20:29:35.448Z,36.60
2023-02-16T20:32:04.917Z,36.00
2023-02-16T20:34:33.505Z,35.33
2023-02-16T20:37:01.364Z,35.17
2023-02-16T20:39:30.511Z,33.93
2023-02-16T20:41:59.276Z,33.80
2023-02-16T20:44:27.677Z,35.07
2023-02-16T20:46:55.414Z,34.07
2023-02-16T20:49:23.376Z,35.07
2023-02-16T20:51:51.109Z,34.23
2023-02-16T20:54:18.923Z,34.17
2023-02-16T20:56:48.090Z,33.33
2023-02-16T20:59:15.823Z,34.00
2023-02-16T21:01:46.519Z,32.47
2023-02-16T21:04:17.129Z,34.33
2023-02-16T21:06:45.178Z,33.03
2023-02-16T21:09:13.194Z,34.13
2023-02-16T21:11:41.802Z,32.00
2023-02-16T21:14:12.738Z,35.30
2023-02-16T21:16:40.949Z,32.13
2023-02-16T21:19:21.192Z,32.67
2023-02-16T21:21:50.447Z,33.13
2023-02-16T21:24:18.333Z,31.90
2023-02-16T21:26:46.047Z,31.53
2023-02-16T21:29:18.484Z,32.60
2023-02-16T21:31:46.325Z,32.23
2023-02-16T21:34:14.169Z,32.90
2023-02-16T21:36:41.910Z,31.13
2023-02-16T21:39:09.765Z,33.50
2023-02-16T21:41:36.984Z,28.90
2023-02-16T21:44:07.648Z,32.43
2023-02-16T21:46:39.017Z,32.87
2023-02-16T21:49:07.316Z,34.30
2023-02-16T21:51:37.024Z,31.43
2023-02-16T21:54:07.289Z,35.13
2023-02-16T21:56:38.625Z,32.90
2023-02-16T21:59:08.584Z,33.90
2023-02-16T22:01:39.852Z,32.53
2023-02-16T22:04:07.721Z,32.97
2023-02-16T22:06:38.777Z,32.37
2023-02-16T22:09:09.017Z,31.03
2023-02-16T22:11:37.800Z,31.20
2023-02-16T22:14:05.972Z,32.57
2023-02-16T22:16:36.633Z,33.57
2023-02-16T22:19:08.710Z,33.57
2023-02-16T22:21:37.921Z,32.73
2023-02-16T22:24:06.731Z,29.23
2023-02-16T22:26:36.015Z,31.07
2023-02-16T22:29:05.673Z,32.00
2023-02-16T22:31:34.264Z,29.67
2023-02-16T22:34:06.108Z,29.87
2023-02-16T22:36:34.576Z,29.47
2023-02-16T22:39:02.323Z,28.97
2023-02-16T22:41:30.246Z,29.33
2023-02-16T22:43:59.204Z,27.27
2023-02-16T22:46:28.080Z,27.37
2023-02-16T22:48:58.363Z,27.83
2023-02-16T22:51:29.494Z,29.47
2023-02-16T22:53:58.964Z,27.03
2023-02-16T22:56:26.893Z,28.23
2023-02-16T22:58:57.500Z,27.70
2023-02-16T23:01:26.602Z,26.47
2023-02-16T23:03:57.501Z,29.17
2023-02-16T23:06:28.977Z,28.67
2023-02-16T23:08:58.689Z,27.03
2023-02-16T23:11:27.613Z,25.80
2023-02-16T23:13:55.703Z,25.60
2023-02-16T23:16:25.181Z,27.40
2023-02-16T23:18:53.204Z,24.37
2023-02-16T23:21:23.413Z,23.53
2023-02-16T23:23:54.408Z,22.23
2023-02-16T23:26:24.017Z,22.07
2023-02-16T23:28:53.128Z,22.83
2023-02-16T23:31:22.194Z,22.50
2023-02-16T23:33:50.219Z,19.40
2023-02-16T23:36:18.800Z,21.93
2023-02-16T23:38:46.566Z,21.70
2023-02-16T23:41:16.690Z,22.53
2023-02-16T23:43:44.473Z,23.80
2023-02-16T23:46:12.440Z,24.23
2023-02-16T23:48:40.194Z,23.73
2023-02-16T23:51:08.807Z,26.47
2023-02-16T23:53:37.768Z,27.30
2023-02-16T23:56:09.024Z,27.17
2023-02-16T23:58:41.404Z,28.30
